createdAt,value
2022-09-13T00:00:53.717Z,16.28
2022-09-13T00:03:22.329Z,16.27
2022-09-13T00:05:50.670Z,16.24
2022-09-13T00:08:19.498Z,16.20
2022-09-13T00:10:49.545Z,16.14
2022-09-13T00:13:18.425Z,16.12
2022-09-13T00:15:48.123Z,16.22
2022-09-13T00:18:16.799Z,16.13
2022-09-13T00:20:44.958Z,16.07
2022-09-13T00:23:14.039Z,15.99
2022-09-13T00:25:42.341Z,15.99
2022-09-13T00:28:12.038Z,16.07
2022-09-13T00:30:40.130Z,16.01
2022-09-13T00:33:08.198Z,15.89
2022-09-13T00:35:36.333Z,15.94
2022-09-13T00:38:05.467Z,15.86
2022-09-13T00:40:38.879Z,15.82
2022-09-13T00:43:15.390Z,15.82
2022-09-13T00:45:43.807Z,15.80
2022-09-13T00:48:21.652Z,15.83
2022-09-13T00:50:54.075Z,15.92
2022-09-13T00:53:27.870Z,15.81
2022-09-13T00:56:00.498Z,15.60
2022-09-13T00:58:33.753Z,15.69
2022-09-13T01:01:05.306Z,15.63
2022-09-13T01:03:36.846Z,15.60
2022-09-13T01:06:10.415Z,15.50
2022-09-13T01:08:41.838Z,15.74
2022-09-13T01:11:17.464Z,15.68
2022-09-13T01:13:48.208Z,15.61
2022-09-13T01:16:16.476Z,15.68
2022-09-13T01:18:44.825Z,15.66
2022-09-13T01:21:49.504Z,15.62
2022-09-13T01:24:49.583Z,15.57
2022-09-13T01:27:31.212Z,15.62
2022-09-13T01:30:07.326Z,15.64
2022-09-13T01:32:45.174Z,15.49
2022-09-13T01:35:23.067Z,15.52
2022-09-13T01:37:59.105Z,15.53
2022-09-13T01:40:44.690Z,15.41
2022-09-13T01:43:26.874Z,15.42
2022-09-13T01:46:05.254Z,15.36
2022-09-13T01:48:49.139Z,15.29
2022-09-13T01:51:25.438Z,15.37
2022-09-13T01:54:15.895Z,15.33
2022-09-13T01:56:52.731Z,15.29
2022-09-13T01:59:27.221Z,15.30
2022-09-13T02:02:02.719Z,15.30
2022-09-13T02:04:38.601Z,15.26
2022-09-13T02:07:12.107Z,15.16
2022-09-13T02:09:44.922Z,15.13
2022-09-13T02:12:23.307Z,15.01
2022-09-13T02:14:58.029Z,15.05
2022-09-13T02:17:32.493Z,14.94
2022-09-13T02:20:04.868Z,14.87
2022-09-13T02:22:36.592Z,14.95
2022-09-13T02:25:11.448Z,14.95
2022-09-13T02:27:42.357Z,14.93
2022-09-13T02:30:12.664Z,14.93
2022-09-13T02:32:46.011Z,14.92
2022-09-13T02:35:20.149Z,14.83
2022-09-13T02:37:53.671Z,14.85
2022-09-13T02:40:27.390Z,14.79
2022-09-13T02:43:02.361Z,14.91
2022-09-13T02:45:36.324Z,14.95
2022-09-13T02:48:12.794Z,14.84
2022-09-13T02:50:50.970Z,14.80
2022-09-13T02:53:29.244Z,14.89
2022-09-13T02:56:05.712Z,14.84
2022-09-13T02:58:41.269Z,14.87
2022-09-13T03:01:09.544Z,14.93
2022-09-13T03:03:39.276Z,14.88
2022-09-13T03:06:08.128Z,14.76
2022-09-13T03:08:37.726Z,14.74
2022-09-13T03:11:15.859Z,14.75
2022-09-13T03:14:17.634Z,14.75
2022-09-13T03:17:00.852Z,14.59
2022-09-13T03:19:44.433Z,14.57
2022-09-13T03:22:38.382Z,14.49
2022-09-13T03:25:15.043Z,14.48
2022-09-13T03:27:53.774Z,14.50
2022-09-13T03:30:22.007Z,14.40
2022-09-13T03:32:54.287Z,14.47
2022-09-13T03:35:32.116Z,14.49
2022-09-13T03:38:06.640Z,14.43
2022-09-13T03:40:43.822Z,14.40
2022-09-13T03:43:16.372Z,14.35
2022-09-13T03:45:49.950Z,14.33
2022-09-13T03:48:19.960Z,14.38
2022-09-13T03:50:50.814Z,14.40
2022-09-13T03:53:23.455Z,14.32
2022-09-13T03:55:52.149Z,14.19
2022-09-13T03:58:22.189Z,14.10
2022-09-13T04:00:50.419Z,14.12
2022-09-13T04:03:18.755Z,14.13
2022-09-13T04:05:47.707Z,14.20
2022-09-13T04:08:17.269Z,14.25
2022-09-13T04:10:45.391Z,14.34
2022-09-13T04:13:13.484Z,14.58
2022-09-13T04:15:41.625Z,14.94
2022-09-13T04:18:11.486Z,15.11
2022-09-13T04:20:39.604Z,14.99
2022-09-13T04:23:07.882Z,15.03
2022-09-13T04:25:40.636Z,15.19
2022-09-13T04:28:09.617Z,15.31
2022-09-13T04:30:42.036Z,15.22
2022-09-13T04:33:10.911Z,15.32
2022-09-13T04:35:39.721Z,15.40
2022-09-13T04:38:08.055Z,15.63
2022-09-13T04:40:39.217Z,15.68
2022-09-13T04:43:07.286Z,15.63
2022-09-13T04:45:35.691Z,15.78
2022-09-13T04:48:04.278Z,15.56
2022-09-13T04:50:32.352Z,15.56
2022-09-13T04:53:00.455Z,15.62
2022-09-13T04:55:28.888Z,15.41
2022-09-13T04:57:58.417Z,15.49
2022-09-13T05:00:27.287Z,15.47
2022-09-13T05:02:58.905Z,15.46
2022-09-13T05:05:28.932Z,15.62
2022-09-13T05:07:57.260Z,15.71
2022-09-13T05:10:25.596Z,15.94
2022-09-13T05:12:54.301Z,16.08
2022-09-13T05:15:23.852Z,16.17
2022-09-13T05:17:51.960Z,16.29
2022-09-13T05:20:20.094Z,16.42
2022-09-13T05:22:48.297Z,16.84
2022-09-13T05:25:16.618Z,17.66
2022-09-13T05:27:46.960Z,19.03
2022-09-13T05:30:15.260Z,20.18
2022-09-13T05:32:44.794Z,20.01
2022-09-13T05:35:13.831Z,21.18
2022-09-13T05:37:41.929Z,21.73
2022-09-13T05:40:12.227Z,21.59
2022-09-13T05:42:40.900Z,21.97
2022-09-13T05:45:10.527Z,22.05
2022-09-13T05:47:38.808Z,22.41
2022-09-13T05:50:15.430Z,22.80
2022-09-13T05:52:53.342Z,22.78
2022-09-13T05:55:23.051Z,22.07
2022-09-13T05:57:51.219Z,22.92
2022-09-13T06:00:19.574Z,23.67
2022-09-13T06:02:47.693Z,23.06
2022-09-13T06:05:17.352Z,24.63
2022-09-13T06:07:45.488Z,24.73
2022-09-13T06:10:13.694Z,24.83
2022-09-13T06:12:42.139Z,25.71
2022-09-13T06:15:12.824Z,25.87
2022-09-13T06:17:40.982Z,26.24
2022-09-13T06:20:10.762Z,26.37
2022-09-13T06:22:40.263Z,26.20
2022-09-13T06:25:09.510Z,26.48
2022-09-13T06:27:37.718Z,26.67
2022-09-13T06:30:08.926Z,26.90
2022-09-13T06:32:37.017Z,27.10
2022-09-13T06:35:05.474Z,26.96
2022-09-13T06:37:33.571Z,26.37
2022-09-13T06:40:04.644Z,26.22
2022-09-13T06:42:35.373Z,25.61
2022-09-13T06:45:03.762Z,24.37
2022-09-13T06:47:32.233Z,23.14
2022-09-13T06:50:01.037Z,23.74
2022-09-13T06:52:29.499Z,23.79
2022-09-13T06:54:57.643Z,22.39
2022-09-13T06:57:27.700Z,22.71
2022-09-13T06:59:55.819Z,22.65
2022-09-13T07:02:25.113Z,21.83
2022-09-13T07:04:53.357Z,21.76
2022-09-13T07:07:21.413Z,21.31
2022-09-13T07:09:49.556Z,21.47
2022-09-13T07:12:20.480Z,21.14
2022-09-13T07:14:50.337Z,20.91
2022-09-13T07:17:18.489Z,20.73
2022-09-13T07:19:46.557Z,20.59
2022-09-13T07:22:14.630Z,20.33
2022-09-13T07:24:42.883Z,20.14
2022-09-13T07:27:11.089Z,20.36
2022-09-13T07:29:39.224Z,20.26
2022-09-13T07:32:08.807Z,20.08
2022-09-13T07:34:36.969Z,20.25
2022-09-13T07:37:05.147Z,20.42
2022-09-13T07:39:33.270Z,20.41
2022-09-13T07:42:01.539Z,20.22
2022-09-13T07:44:29.645Z,20.30
2022-09-13T07:46:57.850Z,20.27
2022-09-13T07:49:27.455Z,20.53
2022-09-13T07:51:55.534Z,20.70
2022-09-13T07:54:23.638Z,20.71
2022-09-13T07:56:51.929Z,20.63
2022-09-13T07:59:20.824Z,20.68
2022-09-13T08:01:50.519Z,20.78
2022-09-13T08:04:21.464Z,20.63
2022-09-13T08:06:51.102Z,20.47
2022-09-13T08:09:19.390Z,20.75
2022-09-13T08:11:49.249Z,20.82
2022-09-13T08:14:19.319Z,20.61
2022-09-13T08:16:47.576Z,20.38
2022-09-13T08:19:18.250Z,20.77
2022-09-13T08:21:47.079Z,21.00
2022-09-13T08:24:18.490Z,21.04
2022-09-13T08:26:47.687Z,20.93
2022-09-13T08:29:17.007Z,20.99
2022-09-13T08:31:45.557Z,20.92
2022-09-13T08:34:14.818Z,21.41
2022-09-13T08:36:43.641Z,21.74
2022-09-13T08:39:13.925Z,21.74
2022-09-13T08:42:19.638Z,21.18
2022-09-13T08:44:50.282Z,21.02
2022-09-13T08:47:39.853Z,21.42
2022-09-13T08:50:15.624Z,21.88
2022-09-13T08:53:03.488Z,21.74
2022-09-13T08:55:43.288Z,21.69
2022-09-13T08:58:44.245Z,21.97
2022-09-13T09:01:22.807Z,21.91
2022-09-13T09:03:57.958Z,21.61
2022-09-13T09:06:26.570Z,21.80
2022-09-13T09:08:59.187Z,21.77
2022-09-13T09:11:46.301Z,21.08
2022-09-13T09:14:22.074Z,21.15
2022-09-13T09:16:54.034Z,21.58
2022-09-13T09:19:27.328Z,21.78
2022-09-13T09:21:55.458Z,21.76
2022-09-13T09:24:25.316Z,21.63
2022-09-13T09:26:55.175Z,21.58
2022-09-13T09:29:29.089Z,21.90
2022-09-13T09:32:11.033Z,22.09
2022-09-13T09:34:53.869Z,21.99
2022-09-13T09:37:25.157Z,21.90
2022-09-13T09:39:54.561Z,21.75
2022-09-13T09:42:26.371Z,21.68
2022-09-13T09:45:00.739Z,21.98
2022-09-13T09:47:33.069Z,21.99
2022-09-13T09:50:12.070Z,22.03
2022-09-13T09:52:45.856Z,22.06
2022-09-13T09:55:21.416Z,22.13
2022-09-13T09:57:54.692Z,22.30
2022-09-13T10:00:26.073Z,21.97
2022-09-13T10:02:58.480Z,22.38
2022-09-13T10:05:28.229Z,22.52
2022-09-13T10:07:59.421Z,22.51
2022-09-13T10:10:37.984Z,22.35
2022-09-13T10:13:09.420Z,22.29
2022-09-13T10:15:38.989Z,21.95
2022-09-13T10:18:43.914Z,21.99
2022-09-13T10:21:07.993Z,22.15
2022-09-13T10:23:37.243Z,21.79
2022-09-13T10:26:10.470Z,21.79
2022-09-13T10:28:46.122Z,21.71
2022-09-13T10:31:17.988Z,21.66
2022-09-13T10:33:54.427Z,21.77
2022-09-13T10:36:50.717Z,22.08
2022-09-13T10:39:19.098Z,22.21
2022-09-13T10:41:53.110Z,22.15
2022-09-13T10:44:41.467Z,22.09
2022-09-13T10:47:16.053Z,21.91
2022-09-13T10:49:49.019Z,21.83
2022-09-13T10:52:28.807Z,21.62
2022-09-13T10:54:57.396Z,21.74
2022-09-13T10:57:36.178Z,21.96
2022-09-13T11:00:09.125Z,22.18
2022-09-13T11:02:55.855Z,22.24
2022-09-13T11:05:27.974Z,22.38
2022-09-13T11:08:13.800Z,22.26
2022-09-13T11:10:53.649Z,22.12
2022-09-13T11:13:32.450Z,22.06
2022-09-13T11:16:14.231Z,22.21
2022-09-13T11:19:08.348Z,22.55
2022-09-13T11:21:49.045Z,22.52
2022-09-13T11:24:44.460Z,22.49
2022-09-13T11:27:21.606Z,22.22
2022-09-13T11:30:06.061Z,22.08
2022-09-13T11:32:48.115Z,21.87
2022-09-13T11:35:35.970Z,21.67
2022-09-13T11:38:14.199Z,21.90
2022-09-13T11:40:53.149Z,21.98
2022-09-13T11:43:42.184Z,22.13
2022-09-13T11:46:20.629Z,22.12
2022-09-13T11:49:29.013Z,22.12
2022-09-13T11:52:10.047Z,22.31
2022-09-13T11:54:55.356Z,22.42
2022-09-13T11:57:28.735Z,22.44
2022-09-13T12:00:01.641Z,22.44
2022-09-13T12:02:41.721Z,22.67
2022-09-13T12:05:22.516Z,23.04
2022-09-13T12:07:56.881Z,22.89
2022-09-13T12:10:29.143Z,22.63
2022-09-13T12:13:01.078Z,22.31
2022-09-13T12:15:38.015Z,22.06
2022-09-13T12:18:13.405Z,22.09
2022-09-13T12:20:45.627Z,21.94
2022-09-13T12:23:18.262Z,21.94
2022-09-13T12:25:52.679Z,21.98
2022-09-13T12:28:27.528Z,22.05
2022-09-13T12:31:01.690Z,22.06
2022-09-13T12:33:29.926Z,22.07
2022-09-13T12:36:23.531Z,22.16
2022-09-13T12:39:15.719Z,22.12
2022-09-13T12:42:12.361Z,22.41
2022-09-13T12:44:56.451Z,22.47
2022-09-13T12:47:50.761Z,22.40
2022-09-13T12:50:46.645Z,22.48
2022-09-13T12:53:36.138Z,22.50
2022-09-13T12:56:31.387Z,22.53
2022-09-13T12:59:29.103Z,22.41
2022-09-13T13:01:58.457Z,22.23
2022-09-13T13:04:30.592Z,21.91
2022-09-13T13:07:01.925Z,21.82
2022-09-13T13:09:41.107Z,21.80
2022-09-13T13:12:11.952Z,21.54
2022-09-13T13:14:53.854Z,21.40
2022-09-13T13:17:46.786Z,21.26
2022-09-13T13:20:48.233Z,21.16
2022-09-13T13:23:23.621Z,21.01
2022-09-13T13:26:36.727Z,20.91
2022-09-13T13:29:19.076Z,20.87
2022-09-13T13:32:04.127Z,20.81
2022-09-13T13:34:44.334Z,20.83
2022-09-13T13:37:38.197Z,20.86
2022-09-13T13:40:25.937Z,21.02
2022-09-13T13:43:31.686Z,21.14
2022-09-13T13:46:26.711Z,21.21
2022-09-13T13:48:55.161Z,21.27
2022-09-13T13:51:25.933Z,21.28
2022-09-13T13:54:01.708Z,21.35
2022-09-13T13:56:49.208Z,21.45
2022-09-13T13:59:32.113Z,21.44
2022-09-13T14:02:02.799Z,21.23
2022-09-13T14:05:08.238Z,21.19
2022-09-13T14:08:28.310Z,21.07
2022-09-13T14:11:03.225Z,21.06
2022-09-13T14:13:56.831Z,21.00
2022-09-13T14:16:39.305Z,20.86
2022-09-13T14:19:24.137Z,20.80
2022-09-13T14:22:16.997Z,20.60
2022-09-13T14:24:48.914Z,20.58
2022-09-13T14:27:24.525Z,20.56
2022-09-13T14:29:54.733Z,20.52
2022-09-13T14:32:25.969Z,20.62
2022-09-13T14:35:01.523Z,20.74
2022-09-13T14:37:32.251Z,20.79
2022-09-13T14:40:04.513Z,20.91
2022-09-13T14:42:43.654Z,20.80
2022-09-13T14:45:15.039Z,20.87
2022-09-13T14:47:52.431Z,20.92
2022-09-13T14:50:26.058Z,20.94
2022-09-13T14:52:57.569Z,20.91
2022-09-13T14:55:29.534Z,20.70
2022-09-13T14:58:03.534Z,20.61
2022-09-13T15:00:34.203Z,20.54
2022-09-13T15:03:13.113Z,20.48
2022-09-13T15:05:42.951Z,20.47
2022-09-13T15:08:45.066Z,20.52
2022-09-13T15:11:27.519Z,20.49
2022-09-13T15:14:18.484Z,20.50
2022-09-13T15:16:51.126Z,20.52
2022-09-13T15:19:38.997Z,20.40
2022-09-13T15:22:19.976Z,20.23
2022-09-13T15:24:51.309Z,20.17
2022-09-13T15:27:23.460Z,20.17
2022-09-13T15:29:56.906Z,20.18
2022-09-13T15:32:31.747Z,20.13
2022-09-13T15:35:01.823Z,20.06
2022-09-13T15:37:34.357Z,20.01
2022-09-13T15:40:23.928Z,19.91
2022-09-13T15:42:53.995Z,19.79
2022-09-13T15:45:23.443Z,19.71
2022-09-13T15:47:53.735Z,19.63
2022-09-13T15:50:26.945Z,19.59
2022-09-13T15:52:57.682Z,19.54
2022-09-13T15:55:27.285Z,19.48
2022-09-13T15:57:56.163Z,19.50
2022-09-13T16:00:27.163Z,19.42
2022-09-13T16:02:55.582Z,19.41
2022-09-13T16:05:23.952Z,19.44
2022-09-13T16:07:54.140Z,19.36
2022-09-13T16:10:24.424Z,19.37
2022-09-13T16:12:52.767Z,19.41
2022-09-13T16:15:20.938Z,19.44
2022-09-13T16:17:49.033Z,19.44
2022-09-13T16:20:18.230Z,19.35
2022-09-13T16:22:46.329Z,19.24
2022-09-13T16:25:15.560Z,19.23
2022-09-13T16:27:45.979Z,19.19
2022-09-13T16:30:16.545Z,19.08
2022-09-13T16:32:44.687Z,19.02
2022-09-13T16:35:13.897Z,18.96
2022-09-13T16:37:43.054Z,18.97
2022-09-13T16:40:12.457Z,18.97
2022-09-13T16:42:40.686Z,19.00
2022-09-13T16:45:11.967Z,18.99
2022-09-13T16:47:41.311Z,19.03
2022-09-13T16:50:11.163Z,19.01
2022-09-13T16:52:39.639Z,19.05
2022-09-13T16:55:09.407Z,19.04
2022-09-13T16:57:37.658Z,19.05
2022-09-13T17:00:09.106Z,19.11
2022-09-13T17:02:39.413Z,19.13
2022-09-13T17:05:08.582Z,19.17
2022-09-13T17:07:37.135Z,19.20
2022-09-13T17:10:07.187Z,19.25
2022-09-13T17:12:35.946Z,19.32
2022-09-13T17:15:04.297Z,19.39
2022-09-13T17:17:36.222Z,19.30
2022-09-13T17:20:10.279Z,19.28
2022-09-13T17:22:38.382Z,19.30
2022-09-13T17:25:07.980Z,19.38
2022-09-13T17:27:36.481Z,19.37
2022-09-13T17:30:05.394Z,19.37
2022-09-13T17:32:33.527Z,19.36
2022-09-13T17:35:01.738Z,19.36
2022-09-13T17:37:31.360Z,19.29
2022-09-13T17:39:59.573Z,19.28
2022-09-13T17:42:28.038Z,19.29
2022-09-13T17:44:56.112Z,19.28
2022-09-13T17:47:24.251Z,19.25
2022-09-13T17:49:52.483Z,19.25
2022-09-13T17:52:20.578Z,19.24
2022-09-13T17:54:50.362Z,19.22
2022-09-13T17:57:18.459Z,19.23
2022-09-13T17:59:47.417Z,19.33
2022-09-13T18:02:15.657Z,19.28
2022-09-13T18:04:43.829Z,19.24
2022-09-13T18:07:12.737Z,19.33
2022-09-13T18:09:41.490Z,19.37
2022-09-13T18:12:11.805Z,19.37
2022-09-13T18:14:40.027Z,19.30
2022-09-13T18:17:13.161Z,19.38
2022-09-13T18:19:46.239Z,19.35
2022-09-13T18:22:14.987Z,19.35
2022-09-13T18:24:43.677Z,19.33
2022-09-13T18:27:13.340Z,19.30
2022-09-13T18:29:41.436Z,19.37
2022-09-13T18:32:09.761Z,19.33
2022-09-13T18:34:38.091Z,19.40
2022-09-13T18:37:06.284Z,19.29
2022-09-13T18:39:34.717Z,19.29
2022-09-13T18:42:03.677Z,19.25
2022-09-13T18:44:34.089Z,19.28
2022-09-13T18:47:04.080Z,19.25
2022-09-13T18:49:35.369Z,19.11
2022-09-13T18:52:03.911Z,19.15
2022-09-13T18:54:33.015Z,19.11
2022-09-13T18:57:01.205Z,19.08
2022-09-13T18:59:32.261Z,19.04
2022-09-13T19:02:01.865Z,19.12
2022-09-13T19:04:30.084Z,19.13
2022-09-13T19:07:03.346Z,19.07
2022-09-13T19:09:31.749Z,19.01
2022-09-13T19:11:59.961Z,18.95
2022-09-13T19:14:29.708Z,19.02
2022-09-13T19:17:01.298Z,18.92
2022-09-13T19:19:32.801Z,18.97
2022-09-13T19:22:00.929Z,18.88
2022-09-13T19:24:29.179Z,18.82
2022-09-13T19:26:57.307Z,18.68
2022-09-13T19:29:26.922Z,18.70
2022-09-13T19:31:56.145Z,18.71
2022-09-13T19:34:24.747Z,18.66
2022-09-13T19:36:58.047Z,18.64
2022-09-13T19:39:29.604Z,18.58
2022-09-13T19:41:58.685Z,18.57
2022-09-13T19:44:26.850Z,18.73
2022-09-13T19:47:29.361Z,18.71
2022-09-13T19:49:43.321Z,18.72
2022-09-13T19:52:12.921Z,18.83
2022-09-13T19:54:41.084Z,18.79
2022-09-13T19:57:10.028Z,18.85
2022-09-13T19:59:38.267Z,18.93
2022-09-13T20:02:07.077Z,18.91
2022-09-13T20:04:35.641Z,18.92
2022-09-13T20:07:04.052Z,18.92
2022-09-13T20:09:33.727Z,18.93
2022-09-13T20:12:01.863Z,18.93
2022-09-13T20:14:30.148Z,18.92
2022-09-13T20:16:59.199Z,18.94
2022-09-13T20:19:41.028Z,18.95
2022-09-13T20:22:10.012Z,19.01
2022-09-13T20:24:39.567Z,19.01
2022-09-13T20:27:08.200Z,19.03
2022-09-13T20:29:36.606Z,18.91
2022-09-13T20:32:05.047Z,18.97
2022-09-13T20:34:35.229Z,18.88
2022-09-13T20:37:03.523Z,18.84
2022-09-13T20:39:31.855Z,18.81
2022-09-13T20:42:01.563Z,18.76
2022-09-13T20:44:29.713Z,18.74
2022-09-13T20:46:57.910Z,18.72
2022-09-13T20:49:26.464Z,18.69
2022-09-13T20:51:54.567Z,18.70
2022-09-13T20:54:22.724Z,18.73
2022-09-13T20:56:50.984Z,18.80
2022-09-13T20:59:21.290Z,18.68
2022-09-13T21:01:49.962Z,18.59
2022-09-13T21:04:18.505Z,18.63
2022-09-13T21:07:00.559Z,18.55
2022-09-13T21:09:28.913Z,18.53
2022-09-13T21:11:57.108Z,18.58
2022-09-13T21:14:26.623Z,18.56
2022-09-13T21:16:55.358Z,18.50
2022-09-13T21:19:23.548Z,18.47
2022-09-13T21:21:51.743Z,18.32
2022-09-13T21:24:20.059Z,18.22
2022-09-13T21:26:48.315Z,18.16
2022-09-13T21:29:16.584Z,18.18
2022-09-13T21:31:46.265Z,18.14
2022-09-13T21:34:16.466Z,18.06
2022-09-13T21:36:45.943Z,18.05
2022-09-13T21:39:15.044Z,18.01
2022-09-13T21:41:43.551Z,17.96
2022-09-13T21:44:12.002Z,17.81
2022-09-13T21:46:41.248Z,17.78
2022-09-13T21:49:12.240Z,17.75
2022-09-13T21:51:42.246Z,17.75
2022-09-13T21:54:12.533Z,17.60
2022-09-13T21:56:42.430Z,17.47
2022-09-13T21:59:14.513Z,17.46
2022-09-13T22:01:46.580Z,17.35
2022-09-13T22:04:18.595Z,17.29
2022-09-13T22:06:48.526Z,17.20
2022-09-13T22:09:17.135Z,17.14
2022-09-13T22:11:47.368Z,17.10
2022-09-13T22:14:17.085Z,17.06
2022-09-13T22:16:46.845Z,16.95
2022-09-13T22:19:18.558Z,16.93
2022-09-13T22:21:48.712Z,16.90
2022-09-13T22:24:18.520Z,16.83
2022-09-13T22:26:47.861Z,16.82
2022-09-13T22:29:16.821Z,16.85
2022-09-13T22:31:47.197Z,16.84
2022-09-13T22:34:18.519Z,16.83
2022-09-13T22:36:46.782Z,16.81
2022-09-13T22:39:17.207Z,16.74
2022-09-13T22:41:46.132Z,16.73
2022-09-13T22:44:15.596Z,16.66
2022-09-13T22:46:45.729Z,16.61
2022-09-13T22:49:15.711Z,16.59
2022-09-13T22:51:46.205Z,16.56
2022-09-13T22:54:15.272Z,16.56
2022-09-13T22:56:43.580Z,16.55
2022-09-13T22:59:17.631Z,16.40
2022-09-13T23:01:46.607Z,16.36
2022-09-13T23:04:15.291Z,16.27
2022-09-13T23:06:48.175Z,16.17
2022-09-13T23:09:19.586Z,16.06
2022-09-13T23:11:48.145Z,16.07
2022-09-13T23:14:20.105Z,16.15
2022-09-13T23:16:51.392Z,16.18
2022-09-13T23:19:21.970Z,16.25
2022-09-13T23:21:54.178Z,16.34
2022-09-13T23:24:24.239Z,16.39
2022-09-13T23:26:55.129Z,16.51
2022-09-13T23:29:23.375Z,16.52
2022-09-13T23:31:52.049Z,16.49
2022-09-13T23:34:20.780Z,16.60
2022-09-13T23:36:48.871Z,16.59
2022-09-13T23:39:20.445Z,16.56
2022-09-13T23:41:50.689Z,16.54
2022-09-13T23:44:19.272Z,16.60
2022-09-13T23:46:47.408Z,16.59
2022-09-13T23:49:15.699Z,16.64
2022-09-13T23:51:43.935Z,16.67
2022-09-13T23:54:13.484Z,16.70
2022-09-13T23:56:43.312Z,16.78
2022-09-13T23:59:12.940Z,16.76
